createdAt,value
2022-08-17T00:02:25.395Z,101097.22
2022-08-17T00:04:54.099Z,101089.28
2022-08-17T00:07:21.299Z,101076.56
2022-08-17T00:09:47.883Z,101068.16
2022-08-17T00:12:43.210Z,101078.09
2022-08-17T00:15:01.571Z,101094.69
2022-08-17T00:17:28.295Z,101088.63
2022-08-17T00:19:55.025Z,101081.38
2022-08-17T00:22:32.279Z,101084.63
2022-08-17T00:25:03.007Z,101081.72
2022-08-17T00:27:29.520Z,101078.69
2022-08-17T00:29:56.083Z,101080.81
2022-08-17T00:33:10.957Z,101068.44
2022-08-17T00:35:12.095Z,101080.22
2022-08-17T00:37:38.905Z,101075.69
2022-08-17T00:40:06.592Z,101075.06
2022-08-17T00:42:33.265Z,101079.38
2022-08-17T00:45:00.152Z,101076.34
2022-08-17T00:47:26.734Z,101074.72
2022-08-17T00:49:54.006Z,101077.06
2022-08-17T00:52:27.624Z,101076.81
2022-08-17T00:54:55.835Z,101077.28
2022-08-17T00:57:35.169Z,101069.47
2022-08-17T01:00:11.235Z,101064.00
2022-08-17T01:02:43.342Z,101062.59
2022-08-17T01:05:16.463Z,101066.09
2022-08-17T01:07:46.820Z,101064.47
2022-08-17T01:10:57.529Z,101070.06
2022-08-17T01:13:02.695Z,101070.28
2022-08-17T01:15:31.243Z,101073.78
2022-08-17T01:17:58.095Z,101065.97
2022-08-17T01:20:25.125Z,101067.59
2022-08-17T01:22:52.309Z,101065.16
2022-08-17T01:25:20.636Z,101066.56
2022-08-17T01:27:49.517Z,101078.13
2022-08-17T01:30:58.955Z,101072.53
2022-08-17T01:33:04.426Z,101057.47
2022-08-17T01:35:31.529Z,101058.88
2022-08-17T01:37:58.133Z,101057.56
2022-08-17T01:40:31.204Z,101046.84
2022-08-17T01:43:03.489Z,101050.94
2022-08-17T01:45:33.873Z,101047.19
2022-08-17T01:48:01.269Z,101054.41
2022-08-17T01:50:31.570Z,101052.31
2022-08-17T01:53:26.347Z,101054.75
2022-08-17T01:55:57.816Z,101052.31
2022-08-17T01:58:24.808Z,101042.66
2022-08-17T02:01:01.304Z,101037.78
2022-08-17T02:03:29.074Z,101039.63
2022-08-17T02:05:56.525Z,101053.03
2022-08-17T02:08:38.873Z,101074.38
2022-08-17T02:11:15.727Z,101088.03
2022-08-17T02:13:44.080Z,101093.38
2022-08-17T02:16:10.986Z,101102.25
2022-08-17T02:18:37.645Z,101079.63
2022-08-17T02:21:04.954Z,101065.97
2022-08-17T02:23:35.559Z,101040.09
2022-08-17T02:26:02.436Z,101029.03
2022-08-17T02:28:29.299Z,101013.53
2022-08-17T02:31:01.727Z,101026.59
2022-08-17T02:33:41.507Z,101019.56
2022-08-17T02:36:12.169Z,101034.03
2022-08-17T02:38:40.238Z,101041.50
2022-08-17T02:41:07.044Z,101026.81
2022-08-17T02:43:33.726Z,101017.25
2022-08-17T02:46:00.516Z,101004.53
2022-08-17T02:48:31.063Z,101017.72
2022-08-17T02:50:58.401Z,101018.88
2022-08-17T02:53:25.770Z,101024.00
2022-08-17T02:55:53.148Z,101030.16
2022-08-17T02:58:34.732Z,101036.72
2022-08-17T03:01:07.051Z,101041.72
2022-08-17T03:03:34.788Z,101041.63
2022-08-17T03:06:01.845Z,101036.38
2022-08-17T03:08:28.584Z,101036.16
2022-08-17T03:10:55.712Z,101020.19
2022-08-17T03:13:22.950Z,101028.09
2022-08-17T03:15:50.587Z,101019.72
2022-08-17T03:18:24.575Z,101015.19
2022-08-17T03:20:54.925Z,101014.25
2022-08-17T03:23:24.134Z,101016.56
2022-08-17T03:25:53.307Z,101012.50
2022-08-17T03:28:21.111Z,101006.06
2022-08-17T03:30:47.741Z,101000.94
2022-08-17T03:33:14.700Z,101012.50
2022-08-17T03:35:42.092Z,101024.38
2022-08-17T03:38:12.796Z,101020.66
2022-08-17T03:40:56.729Z,101012.38
2022-08-17T03:43:25.014Z,101024.25
2022-08-17T03:46:27.183Z,101023.22
2022-08-17T03:49:14.574Z,101028.94
2022-08-17T03:52:00.091Z,101026.84
2022-08-17T03:54:45.410Z,101020.19
2022-08-17T03:57:12.543Z,101030.06
2022-08-17T03:59:40.563Z,101026.00
2022-08-17T04:02:11.569Z,101025.19
2022-08-17T04:04:39.276Z,101019.47
2022-08-17T04:07:06.621Z,101027.75
2022-08-17T04:09:33.532Z,101021.44
2022-08-17T04:12:01.316Z,101018.44
2022-08-17T04:14:39.222Z,101026.69
2022-08-17T04:17:21.446Z,101041.75
2022-08-17T04:19:47.990Z,101041.97
2022-08-17T04:22:30.277Z,101053.28
2022-08-17T04:25:09.031Z,101054.09
2022-08-17T04:27:36.580Z,101061.44
2022-08-17T04:30:07.058Z,101055.25
2022-08-17T04:33:02.246Z,101040.00
2022-08-17T04:35:36.571Z,101043.59
2022-08-17T04:38:03.141Z,101043.84
2022-08-17T04:40:48.056Z,101045.13
2022-08-17T04:43:18.975Z,101053.06
2022-08-17T04:45:56.132Z,101057.81
2022-08-17T04:48:36.111Z,101059.09
2022-08-17T04:51:09.931Z,101063.66
2022-08-17T04:53:38.091Z,101063.41
2022-08-17T04:56:04.948Z,101071.91
2022-08-17T04:58:31.785Z,101070.84
2022-08-17T05:00:58.454Z,101063.06
2022-08-17T05:03:25.036Z,101065.50
2022-08-17T05:05:51.590Z,101074.13
2022-08-17T05:08:20.157Z,101066.69
2022-08-17T05:10:48.313Z,101076.47
2022-08-17T05:13:17.720Z,101074.38
2022-08-17T05:15:47.880Z,101071.69
2022-08-17T05:18:15.577Z,101072.72
2022-08-17T05:20:42.226Z,101075.41
2022-08-17T05:23:12.453Z,101076.34
2022-08-17T05:25:48.625Z,101082.78
2022-08-17T05:28:18.701Z,101093.72
2022-08-17T05:30:50.143Z,101101.97
2022-08-17T05:33:20.207Z,101110.59
2022-08-17T05:35:49.360Z,101114.47
2022-08-17T05:38:18.241Z,101118.19
2022-08-17T05:40:45.241Z,101120.66
2022-08-17T05:43:11.722Z,101127.63
2022-08-17T05:45:55.667Z,101122.03
2022-08-17T05:48:35.429Z,101121.22
2022-08-17T05:51:21.181Z,101130.44
2022-08-17T05:54:12.681Z,101135.69
2022-08-17T05:56:56.186Z,101138.84
2022-08-17T05:59:34.765Z,101148.03
2022-08-17T06:02:19.905Z,101145.34
2022-08-17T06:04:46.367Z,101155.66
2022-08-17T06:07:34.937Z,101153.53
2022-08-17T06:10:29.028Z,101158.22
2022-08-17T06:13:26.167Z,101150.72
2022-08-17T06:16:33.071Z,101156.44
2022-08-17T06:19:06.283Z,101154.59
2022-08-17T06:21:39.443Z,101133.97
2022-08-17T06:24:34.318Z,101131.06
2022-08-17T06:27:36.143Z,101125.22
2022-08-17T06:30:09.200Z,101123.91
2022-08-17T06:32:48.150Z,101130.09
2022-08-17T06:35:19.257Z,101135.22
2022-08-17T06:37:55.052Z,101145.72
2022-08-17T06:40:45.582Z,101150.41
2022-08-17T06:43:29.353Z,101144.59
2022-08-17T06:46:11.440Z,101151.59
2022-08-17T06:48:47.202Z,101148.13
2022-08-17T06:51:33.417Z,101153.47
2022-08-17T06:54:09.025Z,101152.19
2022-08-17T06:56:53.060Z,101151.34
2022-08-17T06:59:36.293Z,101160.00
2022-08-17T07:02:29.132Z,101157.06
2022-08-17T07:05:13.573Z,101150.78
2022-08-17T07:08:04.962Z,101153.25
2022-08-17T07:10:36.733Z,101156.59
2022-08-17T07:13:20.318Z,101148.47
2022-08-17T07:15:56.397Z,101155.78
2022-08-17T07:18:26.081Z,101157.31
2022-08-17T07:21:02.145Z,101162.66
2022-08-17T07:23:44.594Z,101154.72
2022-08-17T07:26:13.290Z,101149.94
2022-08-17T07:28:39.921Z,101162.06
2022-08-17T07:31:07.279Z,101162.53
2022-08-17T07:33:36.854Z,101158.34
2022-08-17T07:36:03.809Z,101157.84
2022-08-17T07:38:32.828Z,101161.13
2022-08-17T07:41:05.091Z,101160.66
2022-08-17T07:43:39.810Z,101164.50
2022-08-17T07:46:33.365Z,101168.09
2022-08-17T07:49:08.893Z,101181.53
2022-08-17T07:51:45.603Z,101188.88
2022-08-17T07:54:15.300Z,101192.72
2022-08-17T07:56:56.188Z,101191.91
2022-08-17T07:59:24.186Z,101197.50
2022-08-17T08:01:57.987Z,101202.94
2022-08-17T08:07:21.689Z,101215.59
2022-08-17T08:10:11.281Z,101205.44
2022-08-17T08:12:42.180Z,101219.16
2022-08-17T08:15:21.834Z,101211.72
2022-08-17T08:17:56.332Z,101224.91
2022-08-17T08:20:53.872Z,101223.28
2022-08-17T08:23:26.566Z,101221.69
2022-08-17T08:26:30.991Z,101219.53
2022-08-17T08:29:12.591Z,101225.75
2022-08-17T08:32:07.640Z,101227.47
2022-08-17T08:34:58.883Z,101233.09
2022-08-17T08:37:43.682Z,101228.53
2022-08-17T08:40:33.749Z,101238.56
2022-08-17T08:43:22.105Z,101234.84
2022-08-17T08:45:57.845Z,101228.59
2022-08-17T08:48:56.878Z,101220.97
2022-08-17T08:51:34.568Z,101217.22
2022-08-17T08:54:31.432Z,101210.41
2022-08-17T08:57:23.310Z,101208.47
2022-08-17T08:59:58.161Z,101200.94
2022-08-17T09:02:40.286Z,101186.38
2022-08-17T09:05:39.306Z,101199.38
2022-08-17T09:08:46.065Z,101206.03
2022-08-17T09:11:12.566Z,101213.75
2022-08-17T09:14:29.367Z,101213.97
2022-08-17T09:17:21.005Z,101202.75
2022-08-17T09:20:27.436Z,101208.75
2022-08-17T09:23:04.007Z,101213.38
2022-08-17T09:25:34.970Z,101210.69
2022-08-17T09:28:17.082Z,101205.91
2022-08-17T09:31:02.522Z,101212.03
2022-08-17T09:33:31.728Z,101217.16
2022-08-17T09:36:11.753Z,101227.13
2022-08-17T09:38:44.030Z,101227.28
2022-08-17T09:41:33.430Z,101229.75
2022-08-17T09:44:22.767Z,101238.06
2022-08-17T09:47:00.186Z,101234.06
2022-08-17T09:49:40.703Z,101241.16
2022-08-17T09:52:13.725Z,101246.22
2022-08-17T09:54:41.396Z,101256.66
2022-08-17T09:57:30.191Z,101247.38
2022-08-17T10:00:13.828Z,101252.34
2022-08-17T10:02:53.155Z,101248.88
2022-08-17T10:05:41.400Z,101251.66
2022-08-17T10:08:17.040Z,101256.16
2022-08-17T10:11:07.241Z,101248.69
2022-08-17T10:13:59.478Z,101249.66
2022-08-17T10:16:55.890Z,101249.81
2022-08-17T10:19:28.346Z,101253.66
2022-08-17T10:22:35.244Z,101257.03
2022-08-17T10:25:27.852Z,101252.84
2022-08-17T10:28:19.652Z,101252.03
2022-08-17T10:31:10.407Z,101255.53
2022-08-17T10:34:09.575Z,101252.31
2022-08-17T10:36:48.977Z,101248.00
2022-08-17T10:39:30.785Z,101244.88
2022-08-17T10:42:03.174Z,101254.00
2022-08-17T10:44:48.471Z,101242.03
2022-08-17T10:47:18.642Z,101248.94
2022-08-17T10:49:49.699Z,101246.00
2022-08-17T10:52:28.350Z,101255.19
2022-08-17T10:54:58.589Z,101249.56
2022-08-17T10:57:31.813Z,101254.31
2022-08-17T11:00:00.316Z,101252.66
2022-08-17T11:02:50.002Z,101250.59
2022-08-17T11:05:28.663Z,101259.16
2022-08-17T11:08:23.909Z,101261.84
2022-08-17T11:11:12.401Z,101261.50
2022-08-17T11:14:08.607Z,101263.97
2022-08-17T11:16:51.208Z,101262.81
2022-08-17T11:19:41.212Z,101266.81
2022-08-17T11:22:16.488Z,101268.31
2022-08-17T11:24:47.777Z,101272.91
2022-08-17T11:27:27.616Z,101267.72
2022-08-17T11:30:01.757Z,101267.34
2022-08-17T11:32:54.804Z,101261.16
2022-08-17T11:35:21.772Z,101266.03
2022-08-17T11:38:30.503Z,101265.16
2022-08-17T11:41:15.685Z,101265.81
2022-08-17T11:44:11.550Z,101267.88
2022-08-17T11:47:15.323Z,101265.16
2022-08-17T11:50:29.107Z,101270.44
2022-08-17T11:52:55.815Z,101272.97
2022-08-17T11:55:41.768Z,101272.06
2022-08-17T11:58:39.584Z,101276.94
2022-08-17T12:01:07.905Z,101273.81
2022-08-17T12:03:34.665Z,101286.38
2022-08-17T12:06:19.629Z,101291.66
2022-08-17T12:08:56.548Z,101289.19
2022-08-17T12:11:57.775Z,101277.03
2022-08-17T12:15:08.488Z,101275.91
2022-08-17T12:17:39.347Z,101287.78
2022-08-17T12:20:34.009Z,101278.31
2022-08-17T12:23:06.259Z,101281.44
2022-08-17T12:26:05.357Z,101272.34
2022-08-17T12:28:36.429Z,101277.81
2022-08-17T12:31:06.996Z,101275.38
2022-08-17T12:33:36.866Z,101271.97
2022-08-17T12:36:07.527Z,101276.91
2022-08-17T12:38:37.514Z,101282.06
2022-08-17T12:41:26.318Z,101288.75
2022-08-17T12:44:02.309Z,101289.69
2022-08-17T12:46:44.756Z,101283.63
2022-08-17T12:49:35.878Z,101288.75
2022-08-17T12:52:05.701Z,101295.41
2022-08-17T12:54:44.087Z,101300.44
2022-08-17T12:57:34.976Z,101281.63
2022-08-17T13:00:32.410Z,101299.50
2022-08-17T13:03:02.172Z,101287.94
2022-08-17T13:05:36.312Z,101287.09
2022-08-17T13:08:23.523Z,101288.75
2022-08-17T13:11:01.797Z,101293.16
2022-08-17T13:13:34.754Z,101287.44
2022-08-17T13:16:05.398Z,101288.41
2022-08-17T13:18:36.521Z,101285.25
2022-08-17T13:21:03.313Z,101285.44
2022-08-17T13:23:32.316Z,101279.63
2022-08-17T13:26:05.378Z,101282.56
2022-08-17T13:28:36.015Z,101287.25
2022-08-17T13:31:28.068Z,101289.44
2022-08-17T13:34:13.385Z,101296.97
2022-08-17T13:36:43.714Z,101300.44
2022-08-17T13:39:21.672Z,101299.28
2022-08-17T13:41:53.853Z,101296.03
2022-08-17T13:44:30.887Z,101291.13
2022-08-17T13:46:59.824Z,101298.72
2022-08-17T13:49:40.983Z,101292.66
2022-08-17T13:52:37.988Z,101293.00
2022-08-17T13:55:15.745Z,101296.25
2022-08-17T13:57:47.003Z,101291.72
2022-08-17T14:00:30.852Z,101289.13
2022-08-17T14:02:58.527Z,101297.31
2022-08-17T14:05:25.778Z,101294.28
2022-08-17T14:07:58.719Z,101283.97
2022-08-17T14:10:26.369Z,101291.00
2022-08-17T14:12:53.460Z,101285.81
2022-08-17T14:15:55.024Z,101277.75
2022-08-17T14:18:12.212Z,101283.25
2022-08-17T14:20:39.893Z,101290.72
2022-08-17T14:23:08.396Z,101289.91
2022-08-17T14:25:35.060Z,101291.53
2022-08-17T14:28:01.940Z,101284.78
2022-08-17T14:30:49.997Z,101280.72
2022-08-17T14:33:25.546Z,101285.84
2022-08-17T14:36:16.421Z,101299.28
2022-08-17T14:38:43.033Z,101289.38
2022-08-17T14:41:09.595Z,101293.59
2022-08-17T14:43:36.460Z,101298.00
2022-08-17T14:46:03.129Z,101299.19
2022-08-17T14:48:29.717Z,101301.53
2022-08-17T14:50:56.737Z,101295.56
2022-08-17T14:53:23.427Z,101308.41
2022-08-17T14:55:51.804Z,101319.41
2022-08-17T14:58:19.940Z,101324.78
2022-08-17T15:00:46.846Z,101323.16
2022-08-17T15:03:14.564Z,101324.91
2022-08-17T15:05:44.274Z,101327.81
2022-08-17T15:08:11.220Z,101327.09
2022-08-17T15:10:39.168Z,101325.25
2022-08-17T15:13:17.070Z,101315.75
2022-08-17T15:15:43.800Z,101315.41
2022-08-17T15:18:10.346Z,101310.16
2022-08-17T15:20:36.881Z,101312.03
2022-08-17T15:23:03.444Z,101309.22
2022-08-17T15:25:32.463Z,101310.72
2022-08-17T15:28:00.556Z,101307.91
2022-08-17T15:30:28.434Z,101319.72
2022-08-17T15:32:57.768Z,101315.97
2022-08-17T15:35:27.369Z,101325.88
2022-08-17T15:37:55.983Z,101318.22
2022-08-17T15:40:22.497Z,101311.91
2022-08-17T15:42:49.042Z,101318.31
2022-08-17T15:45:16.907Z,101317.38
2022-08-17T15:47:43.611Z,101322.72
2022-08-17T15:50:10.665Z,101322.38
2022-08-17T15:52:40.240Z,101321.69
2022-08-17T15:55:10.720Z,101316.19
2022-08-17T15:57:37.316Z,101311.31
2022-08-17T16:00:05.827Z,101318.50
2022-08-17T16:03:45.668Z,101307.19
2022-08-17T16:05:24.786Z,101310.09
2022-08-17T16:07:52.417Z,101311.72
2022-08-17T16:10:19.630Z,101311.97
2022-08-17T16:12:47.949Z,101310.94
2022-08-17T16:15:16.236Z,101316.53
2022-08-17T16:17:43.073Z,101306.13
2022-08-17T16:20:19.771Z,101312.59
2022-08-17T16:22:48.912Z,101317.25
2022-08-17T16:25:19.521Z,101322.19
2022-08-17T16:27:48.275Z,101316.38
2022-08-17T16:30:17.671Z,101318.13
2022-08-17T16:32:45.384Z,101326.28
2022-08-17T16:35:16.184Z,101323.13
2022-08-17T16:37:45.435Z,101332.69
2022-08-17T16:40:13.209Z,101341.66
2022-08-17T16:42:40.210Z,101343.25
2022-08-17T16:45:14.607Z,101348.84
2022-08-17T16:47:41.981Z,101351.44
2022-08-17T16:50:11.750Z,101345.38
2022-08-17T16:52:40.535Z,101349.59
2022-08-17T16:55:09.267Z,101350.28
2022-08-17T16:57:47.412Z,101348.81
2022-08-17T17:00:18.240Z,101360.94
2022-08-17T17:02:47.671Z,101353.56
2022-08-17T17:05:29.256Z,101351.72
2022-08-17T17:08:18.347Z,101345.41
2022-08-17T17:10:47.360Z,101346.13
2022-08-17T17:13:38.953Z,101335.63
2022-08-17T17:16:20.848Z,101342.72
2022-08-17T17:19:15.011Z,101341.81
2022-08-17T17:21:59.990Z,101340.06
2022-08-17T17:24:41.039Z,101341.72
2022-08-17T17:27:17.408Z,101346.97
2022-08-17T17:30:08.180Z,101344.03
2022-08-17T17:32:44.638Z,101349.06
2022-08-17T17:35:18.899Z,101358.97
2022-08-17T17:37:46.877Z,101353.13
2022-08-17T17:40:28.716Z,101351.84
2022-08-17T17:43:09.455Z,101353.72
2022-08-17T17:45:53.035Z,101355.00
2022-08-17T17:48:19.681Z,101364.09
2022-08-17T17:51:05.537Z,101360.03
2022-08-17T17:53:48.385Z,101359.06
2022-08-17T17:56:45.057Z,101351.13
2022-08-17T17:59:27.090Z,101354.16
2022-08-17T18:02:08.804Z,101349.63
2022-08-17T18:04:59.088Z,101340.38
2022-08-17T18:07:42.412Z,101336.88
2022-08-17T18:10:29.541Z,101341.81
2022-08-17T18:13:15.667Z,101333.16
2022-08-17T18:15:51.361Z,101337.22
2022-08-17T18:18:17.957Z,101339.91
2022-08-17T18:20:55.812Z,101338.97
2022-08-17T18:23:27.627Z,101328.69
2022-08-17T18:25:56.235Z,101331.59
2022-08-17T18:28:44.037Z,101331.22
2022-08-17T18:31:20.987Z,101329.25
2022-08-17T18:33:50.772Z,101334.69
2022-08-17T18:36:30.267Z,101328.34
2022-08-17T18:39:21.243Z,101337.78
2022-08-17T18:41:53.558Z,101331.69
2022-08-17T18:44:32.784Z,101324.44
2022-08-17T18:47:19.499Z,101342.69
2022-08-17T18:49:51.881Z,101340.31
2022-08-17T18:52:34.150Z,101338.91
2022-08-17T18:55:08.880Z,101345.31
2022-08-17T18:57:39.444Z,101355.28
2022-08-17T19:00:35.901Z,101354.31
2022-08-17T19:03:18.580Z,101355.06
2022-08-17T19:05:50.578Z,101358.44
2022-08-17T19:08:29.174Z,101360.34
2022-08-17T19:11:05.601Z,101360.97
2022-08-17T19:13:38.682Z,101369.22
2022-08-17T19:16:14.856Z,101379.94
2022-08-17T19:18:58.699Z,101389.03
2022-08-17T19:21:30.852Z,101382.13
2022-08-17T19:24:13.796Z,101386.25
2022-08-17T19:26:51.067Z,101388.94
2022-08-17T19:29:48.041Z,101387.34
2022-08-17T19:32:19.507Z,101382.06
2022-08-17T19:34:46.280Z,101387.63
2022-08-17T19:37:39.402Z,101382.22
2022-08-17T19:40:51.216Z,101389.88
2022-08-17T19:43:28.730Z,101378.88
2022-08-17T19:46:11.522Z,101386.91
2022-08-17T19:49:12.242Z,101390.81
2022-08-17T19:51:48.827Z,101388.13
2022-08-17T19:54:20.520Z,101380.59
2022-08-17T19:57:16.020Z,101397.91
2022-08-17T19:59:49.344Z,101401.91
2022-08-17T20:02:35.702Z,101410.72
2022-08-17T20:05:08.577Z,101416.53
2022-08-17T20:07:53.384Z,101415.72
2022-08-17T20:10:53.611Z,101422.31
2022-08-17T20:13:33.271Z,101430.91
2022-08-17T20:16:01.192Z,101439.53
2022-08-17T20:18:37.686Z,101437.88
2022-08-17T20:21:20.290Z,101438.31
2022-08-17T20:23:59.537Z,101438.31
2022-08-17T20:26:49.114Z,101433.81
2022-08-17T20:29:36.991Z,101441.25
2022-08-17T20:32:16.890Z,101442.13
2022-08-17T20:34:47.201Z,101437.63
2022-08-17T20:37:13.647Z,101427.59
2022-08-17T20:40:05.393Z,101426.56
2022-08-17T20:42:33.875Z,101424.94
2022-08-17T20:45:21.840Z,101426.78
2022-08-17T20:48:18.668Z,101427.44
2022-08-17T20:50:45.232Z,101416.53
2022-08-17T20:53:32.389Z,101412.78
2022-08-17T20:55:58.963Z,101403.47
2022-08-17T20:58:30.931Z,101403.47
2022-08-17T21:00:57.935Z,101408.19
2022-08-17T21:03:24.512Z,101421.13
2022-08-17T21:06:16.905Z,101419.06
2022-08-17T21:09:28.572Z,101412.72
2022-08-17T21:12:04.980Z,101409.34
2022-08-17T21:14:40.869Z,101409.97
2022-08-17T21:17:31.118Z,101399.31
2022-08-17T21:20:14.794Z,101399.34
2022-08-17T21:23:16.518Z,101397.94
2022-08-17T21:26:09.228Z,101407.75
2022-08-17T21:29:29.893Z,101409.00
2022-08-17T21:31:59.453Z,101405.91
2022-08-17T21:34:44.970Z,101409.03
2022-08-17T21:37:23.661Z,101410.28
2022-08-17T21:40:24.490Z,101422.81
2022-08-17T21:42:59.289Z,101439.06
2022-08-17T21:45:30.880Z,101448.34
2022-08-17T21:48:15.086Z,101449.75
2022-08-17T21:50:45.782Z,101453.47
2022-08-17T21:53:22.836Z,101453.09
2022-08-17T21:55:50.337Z,101452.91
2022-08-17T21:58:35.163Z,101453.72
2022-08-17T22:01:21.051Z,101453.72
2022-08-17T22:03:56.420Z,101454.75
2022-08-17T22:06:25.014Z,101455.38
2022-08-17T22:09:05.925Z,101461.13
2022-08-17T22:11:57.549Z,101463.19
2022-08-17T22:15:00.857Z,101474.09
2022-08-17T22:17:27.345Z,101485.63
2022-08-17T22:19:58.955Z,101481.09
2022-08-17T22:22:27.896Z,101483.97
2022-08-17T22:24:57.776Z,101482.34
2022-08-17T22:27:45.864Z,101479.91
2022-08-17T22:30:27.539Z,101479.91
2022-08-17T22:32:54.230Z,101483.19
2022-08-17T22:35:37.392Z,101484.00
2022-08-17T22:38:19.347Z,101487.69
2022-08-17T22:40:55.088Z,101489.38
2022-08-17T22:43:26.385Z,101486.06
2022-08-17T22:45:57.280Z,101489.78
2022-08-17T22:48:28.926Z,101490.00
2022-08-17T22:51:14.222Z,101491.22
2022-08-17T22:54:08.700Z,101488.16
2022-08-17T22:56:54.815Z,101499.25
2022-08-17T22:59:44.294Z,101504.97
2022-08-17T23:02:19.615Z,101506.19
2022-08-17T23:05:07.236Z,101517.13
2022-08-17T23:07:33.739Z,101517.72
2022-08-17T23:10:02.168Z,101516.28
2022-08-17T23:12:29.221Z,101516.50
2022-08-17T23:15:01.237Z,101514.66
2022-08-17T23:17:35.131Z,101508.88
2022-08-17T23:20:09.104Z,101505.19
2022-08-17T23:22:38.164Z,101504.34
2022-08-17T23:25:29.422Z,101500.44
2022-08-17T23:27:58.374Z,101495.94
2022-08-17T23:30:25.685Z,101493.88
2022-08-17T23:32:54.189Z,101498.59
2022-08-17T23:35:40.279Z,101499.00
2022-08-17T23:38:11.694Z,101494.28
2022-08-17T23:40:39.832Z,101487.94
2022-08-17T23:43:23.720Z,101487.72
2022-08-17T23:45:57.544Z,101487.91
2022-08-17T23:48:32.483Z,101490.78
2022-08-17T23:51:14.862Z,101485.88
2022-08-17T23:53:46.309Z,101482.78
2022-08-17T23:56:12.944Z,101482.38
2022-08-17T23:58:42.418Z,101490.78
